sensor_id;sensor_type;location;lat;lon;timestamp;P1;durP1;ratioP1;P2;durP2;ratioP2
10467;SDS011;5281;48.878;9.394;2024-03-02T00:00:34;13.33;;;9.30;;
10467;SDS011;5281;48.878;9.394;2024-03-02T00:03:01;11.57;;;9.07;;
10467;SDS011;5281;48.878;9.394;2024-03-02T00:05:28;10.60;;;8.67;;
10467;SDS011;5281;48.878;9.394;2024-03-02T00:07:56;11.00;;;8.77;;
10467;SDS011;5281;48.878;9.394;2024-03-02T00:10:25;10.53;;;8.57;;
10467;SDS011;5281;48.878;9.394;2024-03-02T00:12:54;10.20;;;7.80;;
10467;SDS011;5281;48.878;9.394;2024-03-02T00:15:31;9.43;;;8.37;;
10467;SDS011;5281;48.878;9.394;2024-03-02T00:18:06;11.23;;;8.70;;
10467;SDS011;5281;48.878;9.394;2024-03-02T00:20:34;10.90;;;8.70;;
10467;SDS011;5281;48.878;9.394;2024-03-02T00:23:03;11.03;;;8.90;;
10467;SDS011;5281;48.878;9.394;2024-03-02T00:25:35;11.10;;;8.20;;
10467;SDS011;5281;48.878;9.394;2024-03-02T00:28:04;11.97;;;9.43;;
10467;SDS011;5281;48.878;9.394;2024-03-02T00:30:39;11.83;;;8.47;;
10467;SDS011;5281;48.878;9.394;2024-03-02T00:33:16;12.43;;;8.20;;
10467;SDS011;5281;48.878;9.394;2024-03-02T00:35:44;9.53;;;7.80;;
10467;SDS011;5281;48.878;9.394;2024-03-02T00:38:13;10.53;;;8.50;;
10467;SDS011;5281;48.878;9.394;2024-03-02T00:40:40;12.37;;;8.20;;
10467;SDS011;5281;48.878;9.394;2024-03-02T00:43:09;9.97;;;8.07;;
10467;SDS011;5281;48.878;9.394;2024-03-02T00:45:49;11.57;;;8.30;;
10467;SDS011;5281;48.878;9.394;2024-03-02T00:48:16;12.07;;;8.60;;
10467;SDS011;5281;48.878;9.394;2024-03-02T00:50:42;10.17;;;8.20;;
10467;SDS011;5281;48.878;9.394;2024-03-02T00:53:10;9.73;;;8.47;;
10467;SDS011;5281;48.878;9.394;2024-03-02T00:55:39;10.57;;;8.80;;
10467;SDS011;5281;48.878;9.394;2024-03-02T00:58:09;12.53;;;9.10;;
10467;SDS011;5281;48.878;9.394;2024-03-02T01:00:35;9.57;;;8.00;;
10467;SDS011;5281;48.878;9.394;2024-03-02T01:03:02;10.97;;;8.33;;
10467;SDS011;5281;48.878;9.394;2024-03-02T01:05:30;10.03;;;8.17;;
10467;SDS011;5281;48.878;9.394;2024-03-02T01:07:56;11.03;;;8.20;;
10467;SDS011;5281;48.878;9.394;2024-03-02T01:10:24;10.53;;;8.87;;
10467;SDS011;5281;48.878;9.394;2024-03-02T01:12:51;9.70;;;8.03;;
10467;SDS011;5281;48.878;9.394;2024-03-02T01:15:18;10.00;;;8.10;;
10467;SDS011;5281;48.878;9.394;2024-03-02T01:17:45;11.23;;;9.13;;
10467;SDS011;5281;48.878;9.394;2024-03-02T01:20:12;11.40;;;9.00;;
10467;SDS011;5281;48.878;9.394;2024-03-02T01:22:39;12.47;;;9.30;;
10467;SDS011;5281;48.878;9.394;2024-03-02T01:25:06;10.83;;;9.37;;
10467;SDS011;5281;48.878;9.394;2024-03-02T01:27:35;11.37;;;9.10;;
10467;SDS011;5281;48.878;9.394;2024-03-02T01:30:02;11.23;;;9.07;;
10467;SDS011;5281;48.878;9.394;2024-03-02T01:32:29;11.10;;;9.30;;
10467;SDS011;5281;48.878;9.394;2024-03-02T01:34:55;13.20;;;10.47;;
10467;SDS011;5281;48.878;9.394;2024-03-02T01:37:22;11.73;;;9.33;;
10467;SDS011;5281;48.878;9.394;2024-03-02T01:39:49;11.37;;;9.57;;
10467;SDS011;5281;48.878;9.394;2024-03-02T01:42:15;10.57;;;8.77;;
10467;SDS011;5281;48.878;9.394;2024-03-02T01:44:43;11.10;;;9.03;;
10467;SDS011;5281;48.878;9.394;2024-03-02T01:47:10;12.53;;;9.63;;
10467;SDS011;5281;48.878;9.394;2024-03-02T01:49:37;12.20;;;9.17;;
10467;SDS011;5281;48.878;9.394;2024-03-02T01:52:06;11.83;;;9.60;;
10467;SDS011;5281;48.878;9.394;2024-03-02T01:54:33;12.67;;;9.90;;
10467;SDS011;5281;48.878;9.394;2024-03-02T01:56:59;11.97;;;9.83;;
10467;SDS011;5281;48.878;9.394;2024-03-02T01:59:26;12.13;;;9.97;;
10467;SDS011;5281;48.878;9.394;2024-03-02T02:01:54;11.73;;;9.23;;
10467;SDS011;5281;48.878;9.394;2024-03-02T02:04:21;12.27;;;9.43;;
10467;SDS011;5281;48.878;9.394;2024-03-02T02:06:52;12.63;;;10.23;;
10467;SDS011;5281;48.878;9.394;2024-03-02T02:09:18;11.30;;;9.27;;
10467;SDS011;5281;48.878;9.394;2024-03-02T02:11:45;10.87;;;9.13;;
10467;SDS011;5281;48.878;9.394;2024-03-02T02:14:12;12.07;;;9.47;;
10467;SDS011;5281;48.878;9.394;2024-03-02T02:16:39;11.40;;;8.70;;
10467;SDS011;5281;48.878;9.394;2024-03-02T02:19:07;12.07;;;9.80;;
10467;SDS011;5281;48.878;9.394;2024-03-02T02:21:35;10.50;;;9.00;;
10467;SDS011;5281;48.878;9.394;2024-03-02T02:24:02;11.67;;;9.27;;
10467;SDS011;5281;48.878;9.394;2024-03-02T02:26:29;11.23;;;9.73;;
10467;SDS011;5281;48.878;9.394;2024-03-02T02:28:56;14.23;;;10.17;;
10467;SDS011;5281;48.878;9.394;2024-03-02T02:31:23;10.77;;;9.17;;
10467;SDS011;5281;48.878;9.394;2024-03-02T02:33:49;11.33;;;9.07;;
10467;SDS011;5281;48.878;9.394;2024-03-02T02:36:16;11.50;;;9.23;;
10467;SDS011;5281;48.878;9.394;2024-03-02T02:38:44;12.00;;;9.70;;
10467;SDS011;5281;48.878;9.394;2024-03-02T02:41:13;12.10;;;9.00;;
10467;SDS011;5281;48.878;9.394;2024-03-02T02:43:40;12.47;;;9.53;;
10467;SDS011;5281;48.878;9.394;2024-03-02T02:46:07;9.67;;;8.60;;
10467;SDS011;5281;48.878;9.394;2024-03-02T02:48:33;11.87;;;9.10;;
10467;SDS011;5281;48.878;9.394;2024-03-02T02:51:00;11.77;;;9.53;;
10467;SDS011;5281;48.878;9.394;2024-03-02T02:53:27;12.60;;;9.33;;
10467;SDS011;5281;48.878;9.394;2024-03-02T02:55:55;10.40;;;8.57;;
10467;SDS011;5281;48.878;9.394;2024-03-02T02:58:21;11.80;;;8.77;;
10467;SDS011;5281;48.878;9.394;2024-03-02T03:00:48;11.53;;;8.93;;
10467;SDS011;5281;48.878;9.394;2024-03-02T03:03:15;10.27;;;8.50;;
10467;SDS011;5281;48.878;9.394;2024-03-02T03:05:42;12.50;;;10.20;;
10467;SDS011;5281;48.878;9.394;2024-03-02T03:08:08;11.97;;;9.03;;
10467;SDS011;5281;48.878;9.394;2024-03-02T03:10:35;12.40;;;9.63;;
10467;SDS011;5281;48.878;9.394;2024-03-02T03:13:03;12.23;;;9.80;;
10467;SDS011;5281;48.878;9.394;2024-03-02T03:15:33;11.47;;;9.03;;
10467;SDS011;5281;48.878;9.394;2024-03-02T03:18:01;12.77;;;10.30;;
10467;SDS011;5281;48.878;9.394;2024-03-02T03:20:28;13.67;;;10.03;;
10467;SDS011;5281;48.878;9.394;2024-03-02T03:22:55;13.90;;;10.20;;
10467;SDS011;5281;48.878;9.394;2024-03-02T03:25:22;12.03;;;9.83;;
10467;SDS011;5281;48.878;9.394;2024-03-02T03:27:49;12.43;;;9.97;;
10467;SDS011;5281;48.878;9.394;2024-03-02T03:30:18;12.43;;;9.70;;
10467;SDS011;5281;48.878;9.394;2024-03-02T03:32:45;12.97;;;10.70;;
10467;SDS011;5281;48.878;9.394;2024-03-02T03:35:13;11.83;;;9.27;;
10467;SDS011;5281;48.878;9.394;2024-03-02T03:37:40;12.73;;;10.40;;
10467;SDS011;5281;48.878;9.394;2024-03-02T03:40:07;11.90;;;10.03;;
10467;SDS011;5281;48.878;9.394;2024-03-02T03:42:36;12.23;;;9.90;;
10467;SDS011;5281;48.878;9.394;2024-03-02T03:45:02;11.83;;;9.47;;
10467;SDS011;5281;48.878;9.394;2024-03-02T03:47:32;12.67;;;9.90;;
10467;SDS011;5281;48.878;9.394;2024-03-02T03:49:59;15.37;;;10.30;;
10467;SDS011;5281;48.878;9.394;2024-03-02T03:52:25;13.10;;;9.53;;
10467;SDS011;5281;48.878;9.394;2024-03-02T03:54:52;13.73;;;10.20;;
10467;SDS011;5281;48.878;9.394;2024-03-02T03:57:18;15.60;;;10.73;;
10467;SDS011;5281;48.878;9.394;2024-03-02T03:59:45;13.93;;;10.70;;
10467;SDS011;5281;48.878;9.394;2024-03-02T04:02:12;14.00;;;10.73;;
10467;SDS011;5281;48.878;9.394;2024-03-02T04:04:40;14.53;;;10.50;;
10467;SDS011;5281;48.878;9.394;2024-03-02T04:07:07;12.77;;;10.23;;
10467;SDS011;5281;48.878;9.394;2024-03-02T04:09:33;15.03;;;11.20;;
10467;SDS011;5281;48.878;9.394;2024-03-02T04:12:00;16.13;;;11.47;;
10467;SDS011;5281;48.878;9.394;2024-03-02T04:14:27;15.07;;;10.23;;
10467;SDS011;5281;48.878;9.394;2024-03-02T04:16:53;13.90;;;10.80;;
10467;SDS011;5281;48.878;9.394;2024-03-02T04:19:20;13.23;;;10.27;;
10467;SDS011;5281;48.878;9.394;2024-03-02T04:21:48;13.20;;;10.57;;
10467;SDS011;5281;48.878;9.394;2024-03-02T04:24:15;13.27;;;10.97;;
10467;SDS011;5281;48.878;9.394;2024-03-02T04:26:41;14.23;;;10.77;;
10467;SDS011;5281;48.878;9.394;2024-03-02T04:29:08;14.30;;;11.10;;
10467;SDS011;5281;48.878;9.394;2024-03-02T04:31:35;13.87;;;10.47;;
10467;SDS011;5281;48.878;9.394;2024-03-02T04:34:01;13.57;;;10.87;;
10467;SDS011;5281;48.878;9.394;2024-03-02T04:36:28;14.50;;;11.30;;
10467;SDS011;5281;48.878;9.394;2024-03-02T04:38:56;14.10;;;11.00;;
10467;SDS011;5281;48.878;9.394;2024-03-02T04:41:23;13.47;;;9.87;;
10467;SDS011;5281;48.878;9.394;2024-03-02T04:43:49;14.83;;;11.20;;
10467;SDS011;5281;48.878;9.394;2024-03-02T04:46:16;15.67;;;11.93;;
10467;SDS011;5281;48.878;9.394;2024-03-02T04:48:42;14.47;;;11.57;;
10467;SDS011;5281;48.878;9.394;2024-03-02T04:51:09;16.80;;;11.50;;
10467;SDS011;5281;48.878;9.394;2024-03-02T04:53:36;17.17;;;12.13;;
10467;SDS011;5281;48.878;9.394;2024-03-02T04:56:05;17.00;;;12.50;;
10467;SDS011;5281;48.878;9.394;2024-03-02T04:59:05;17.97;;;12.40;;
10467;SDS011;5281;48.878;9.394;2024-03-02T05:01:32;17.33;;;12.80;;
10467;SDS011;5281;48.878;9.394;2024-03-02T05:03:59;18.53;;;13.77;;
10467;SDS011;5281;48.878;9.394;2024-03-02T05:06:25;16.57;;;12.67;;
10467;SDS011;5281;48.878;9.394;2024-03-02T05:08:52;18.97;;;13.07;;
10467;SDS011;5281;48.878;9.394;2024-03-02T05:11:20;19.63;;;14.17;;
10467;SDS011;5281;48.878;9.394;2024-03-02T05:14:18;19.53;;;13.00;;
10467;SDS011;5281;48.878;9.394;2024-03-02T05:16:44;17.13;;;13.07;;
10467;SDS011;5281;48.878;9.394;2024-03-02T05:19:11;18.10;;;13.13;;
10467;SDS011;5281;48.878;9.394;2024-03-02T05:21:38;18.93;;;13.90;;
10467;SDS011;5281;48.878;9.394;2024-03-02T05:24:04;17.80;;;13.00;;
10467;SDS011;5281;48.878;9.394;2024-03-02T05:26:33;17.37;;;13.33;;
10467;SDS011;5281;48.878;9.394;2024-03-02T05:28:59;17.57;;;12.97;;
10467;SDS011;5281;48.878;9.394;2024-03-02T05:31:26;19.63;;;13.63;;
10467;SDS011;5281;48.878;9.394;2024-03-02T05:33:52;18.37;;;13.27;;
10467;SDS011;5281;48.878;9.394;2024-03-02T05:36:19;17.80;;;13.27;;
10467;SDS011;5281;48.878;9.394;2024-03-02T05:38:46;17.57;;;12.90;;
10467;SDS011;5281;48.878;9.394;2024-03-02T05:41:13;19.27;;;13.13;;
10467;SDS011;5281;48.878;9.394;2024-03-02T05:43:41;17.07;;;12.53;;
10467;SDS011;5281;48.878;9.394;2024-03-02T05:46:07;15.93;;;12.40;;
10467;SDS011;5281;48.878;9.394;2024-03-02T05:48:34;19.57;;;12.93;;
10467;SDS011;5281;48.878;9.394;2024-03-02T05:51:01;19.87;;;14.73;;
10467;SDS011;5281;48.878;9.394;2024-03-02T05:53:28;18.07;;;13.33;;
10467;SDS011;5281;48.878;9.394;2024-03-02T05:55:54;18.73;;;13.17;;
10467;SDS011;5281;48.878;9.394;2024-03-02T05:58:21;18.90;;;13.27;;
10467;SDS011;5281;48.878;9.394;2024-03-02T06:01:04;18.73;;;12.97;;
10467;SDS011;5281;48.878;9.394;2024-03-02T06:03:31;16.50;;;12.43;;
10467;SDS011;5281;48.878;9.394;2024-03-02T06:05:58;17.37;;;13.00;;
10467;SDS011;5281;48.878;9.394;2024-03-02T06:08:24;16.33;;;12.37;;
10467;SDS011;5281;48.878;9.394;2024-03-02T06:10:51;15.33;;;12.20;;
10467;SDS011;5281;48.878;9.394;2024-03-02T06:13:18;17.03;;;12.07;;
10467;SDS011;5281;48.878;9.394;2024-03-02T06:15:44;15.97;;;12.27;;
10467;SDS011;5281;48.878;9.394;2024-03-02T06:18:12;16.80;;;12.23;;
10467;SDS011;5281;48.878;9.394;2024-03-02T06:20:39;16.03;;;11.67;;
10467;SDS011;5281;48.878;9.394;2024-03-02T06:23:06;17.37;;;12.30;;
10467;SDS011;5281;48.878;9.394;2024-03-02T06:25:33;18.03;;;12.50;;
10467;SDS011;5281;48.878;9.394;2024-03-02T06:27:59;16.57;;;12.17;;
10467;SDS011;5281;48.878;9.394;2024-03-02T06:30:26;17.67;;;12.60;;
10467;SDS011;5281;48.878;9.394;2024-03-02T06:32:53;17.13;;;12.27;;
10467;SDS011;5281;48.878;9.394;2024-03-02T06:35:21;16.13;;;11.87;;
10467;SDS011;5281;48.878;9.394;2024-03-02T06:37:47;14.93;;;11.33;;
10467;SDS011;5281;48.878;9.394;2024-03-02T06:40:15;16.20;;;12.17;;
10467;SDS011;5281;48.878;9.394;2024-03-02T06:42:41;14.57;;;11.63;;
10467;SDS011;5281;48.878;9.394;2024-03-02T06:45:08;14.37;;;11.57;;
10467;SDS011;5281;48.878;9.394;2024-03-02T06:47:35;15.77;;;11.67;;
10467;SDS011;5281;48.878;9.394;2024-03-02T06:50:01;19.23;;;12.20;;
10467;SDS011;5281;48.878;9.394;2024-03-02T06:52:30;14.53;;;11.03;;
10467;SDS011;5281;48.878;9.394;2024-03-02T06:54:56;16.10;;;11.63;;
10467;SDS011;5281;48.878;9.394;2024-03-02T06:57:23;14.63;;;11.00;;
10467;SDS011;5281;48.878;9.394;2024-03-02T06:59:50;14.47;;;10.97;;
10467;SDS011;5281;48.878;9.394;2024-03-02T07:02:19;14.80;;;11.27;;
10467;SDS011;5281;48.878;9.394;2024-03-02T07:04:46;16.10;;;11.13;;
10467;SDS011;5281;48.878;9.394;2024-03-02T07:07:13;15.83;;;11.03;;
10467;SDS011;5281;48.878;9.394;2024-03-02T07:09:40;14.00;;;10.37;;
10467;SDS011;5281;48.878;9.394;2024-03-02T07:12:07;14.13;;;10.23;;
10467;SDS011;5281;48.878;9.394;2024-03-02T07:14:34;15.50;;;11.17;;
10467;SDS011;5281;48.878;9.394;2024-03-02T07:17:18;15.27;;;10.33;;
10467;SDS011;5281;48.878;9.394;2024-03-02T07:19:45;13.47;;;10.30;;
10467;SDS011;5281;48.878;9.394;2024-03-02T07:22:12;13.90;;;9.73;;
10467;SDS011;5281;48.878;9.394;2024-03-02T07:24:40;15.77;;;11.23;;
10467;SDS011;5281;48.878;9.394;2024-03-02T07:27:08;12.00;;;9.37;;
10467;SDS011;5281;48.878;9.394;2024-03-02T07:29:35;17.37;;;9.63;;
10467;SDS011;5281;48.878;9.394;2024-03-02T07:32:02;12.23;;;9.70;;
10467;SDS011;5281;48.878;9.394;2024-03-02T07:34:29;11.93;;;9.10;;
10467;SDS011;5281;48.878;9.394;2024-03-02T07:36:55;11.63;;;9.00;;
10467;SDS011;5281;48.878;9.394;2024-03-02T07:39:22;10.60;;;8.27;;
10467;SDS011;5281;48.878;9.394;2024-03-02T07:41:51;12.60;;;8.20;;
10467;SDS011;5281;48.878;9.394;2024-03-02T07:44:18;10.07;;;8.30;;
10467;SDS011;5281;48.878;9.394;2024-03-02T07:46:45;11.90;;;8.87;;
10467;SDS011;5281;48.878;9.394;2024-03-02T07:49:12;9.17;;;7.27;;
10467;SDS011;5281;48.878;9.394;2024-03-02T07:51:39;12.17;;;9.37;;
10467;SDS011;5281;48.878;9.394;2024-03-02T07:54:06;9.17;;;7.33;;
10467;SDS011;5281;48.878;9.394;2024-03-02T07:56:33;9.17;;;7.67;;
10467;SDS011;5281;48.878;9.394;2024-03-02T07:59:01;8.77;;;7.00;;
10467;SDS011;5281;48.878;9.394;2024-03-02T08:01:28;9.03;;;7.20;;
10467;SDS011;5281;48.878;9.394;2024-03-02T08:03:55;7.87;;;7.00;;
10467;SDS011;5281;48.878;9.394;2024-03-02T08:06:23;8.17;;;6.40;;
10467;SDS011;5281;48.878;9.394;2024-03-02T08:08:52;8.73;;;6.73;;
10467;SDS011;5281;48.878;9.394;2024-03-02T08:11:19;6.93;;;6.23;;
10467;SDS011;5281;48.878;9.394;2024-03-02T08:13:46;8.23;;;6.33;;
10467;SDS011;5281;48.878;9.394;2024-03-02T08:16:14;9.00;;;6.53;;
10467;SDS011;5281;48.878;9.394;2024-03-02T08:18:41;7.30;;;6.00;;
10467;SDS011;5281;48.878;9.394;2024-03-02T08:21:09;7.43;;;6.43;;
10467;SDS011;5281;48.878;9.394;2024-03-02T08:23:36;7.27;;;6.10;;
10467;SDS011;5281;48.878;9.394;2024-03-02T08:26:03;7.87;;;6.17;;
10467;SDS011;5281;48.878;9.394;2024-03-02T08:28:30;8.67;;;6.43;;
10467;SDS011;5281;48.878;9.394;2024-03-02T08:30:56;8.00;;;6.03;;
10467;SDS011;5281;48.878;9.394;2024-03-02T08:33:24;6.90;;;5.80;;
10467;SDS011;5281;48.878;9.394;2024-03-02T08:35:51;8.07;;;6.17;;
10467;SDS011;5281;48.878;9.394;2024-03-02T08:38:18;7.10;;;5.70;;
10467;SDS011;5281;48.878;9.394;2024-03-02T08:40:45;7.13;;;5.50;;
10467;SDS011;5281;48.878;9.394;2024-03-02T08:43:11;7.60;;;5.43;;
10467;SDS011;5281;48.878;9.394;2024-03-02T08:45:38;6.57;;;5.23;;
10467;SDS011;5281;48.878;9.394;2024-03-02T08:48:06;6.43;;;5.53;;
10467;SDS011;5281;48.878;9.394;2024-03-02T08:50:34;5.80;;;4.90;;
10467;SDS011;5281;48.878;9.394;2024-03-02T08:53:00;6.33;;;5.60;;
10467;SDS011;5281;48.878;9.394;2024-03-02T08:55:27;7.40;;;5.30;;
10467;SDS011;5281;48.878;9.394;2024-03-02T08:57:53;5.93;;;5.10;;
10467;SDS011;5281;48.878;9.394;2024-03-02T09:00:21;6.60;;;5.57;;
10467;SDS011;5281;48.878;9.394;2024-03-02T09:02:47;6.90;;;5.57;;
10467;SDS011;5281;48.878;9.394;2024-03-02T09:05:14;5.80;;;4.37;;
10467;SDS011;5281;48.878;9.394;2024-03-02T09:07:43;6.90;;;5.50;;
10467;SDS011;5281;48.878;9.394;2024-03-02T09:10:09;6.77;;;5.50;;
10467;SDS011;5281;48.878;9.394;2024-03-02T09:12:36;8.43;;;5.03;;
10467;SDS011;5281;48.878;9.394;2024-03-02T09:15:04;6.23;;;5.10;;
10467;SDS011;5281;48.878;9.394;2024-03-02T09:17:32;5.70;;;4.97;;
10467;SDS011;5281;48.878;9.394;2024-03-02T09:19:58;6.43;;;4.90;;
10467;SDS011;5281;48.878;9.394;2024-03-02T09:22:25;6.30;;;4.77;;
10467;SDS011;5281;48.878;9.394;2024-03-02T09:24:53;5.50;;;4.97;;
10467;SDS011;5281;48.878;9.394;2024-03-02T09:27:20;6.00;;;5.00;;
10467;SDS011;5281;48.878;9.394;2024-03-02T09:29:47;5.30;;;4.80;;
10467;SDS011;5281;48.878;9.394;2024-03-02T09:32:15;8.17;;;4.77;;
10467;SDS011;5281;48.878;9.394;2024-03-02T09:34:42;6.13;;;5.10;;
10467;SDS011;5281;48.878;9.394;2024-03-02T09:37:09;5.97;;;4.50;;
10467;SDS011;5281;48.878;9.394;2024-03-02T09:39:36;4.80;;;4.07;;
10467;SDS011;5281;48.878;9.394;2024-03-02T09:42:04;5.93;;;4.50;;
10467;SDS011;5281;48.878;9.394;2024-03-02T09:44:31;4.70;;;4.20;;
10467;SDS011;5281;48.878;9.394;2024-03-02T09:47:09;5.47;;;4.40;;
10467;SDS011;5281;48.878;9.394;2024-03-02T09:49:36;6.60;;;3.90;;
10467;SDS011;5281;48.878;9.394;2024-03-02T09:52:02;5.37;;;4.33;;
10467;SDS011;5281;48.878;9.394;2024-03-02T09:54:30;5.03;;;4.27;;
10467;SDS011;5281;48.878;9.394;2024-03-02T09:56:57;5.80;;;3.97;;
10467;SDS011;5281;48.878;9.394;2024-03-02T09:59:25;5.67;;;4.20;;
10467;SDS011;5281;48.878;9.394;2024-03-02T10:01:56;4.30;;;3.70;;
10467;SDS011;5281;48.878;9.394;2024-03-02T10:04:25;5.13;;;3.50;;
10467;SDS011;5281;48.878;9.394;2024-03-02T10:06:55;4.50;;;3.37;;
10467;SDS011;5281;48.878;9.394;2024-03-02T10:09:37;4.63;;;3.70;;
10467;SDS011;5281;48.878;9.394;2024-03-02T10:12:03;6.43;;;3.83;;
10467;SDS011;5281;48.878;9.394;2024-03-02T10:14:32;3.50;;;3.20;;
10467;SDS011;5281;48.878;9.394;2024-03-02T10:17:01;4.63;;;3.93;;
10467;SDS011;5281;48.878;9.394;2024-03-02T10:19:29;4.20;;;3.60;;
10467;SDS011;5281;48.878;9.394;2024-03-02T10:21:58;4.00;;;3.37;;
10467;SDS011;5281;48.878;9.394;2024-03-02T10:24:25;4.50;;;3.10;;
10467;SDS011;5281;48.878;9.394;2024-03-02T10:26:52;3.97;;;3.50;;
10467;SDS011;5281;48.878;9.394;2024-03-02T10:29:19;4.27;;;2.93;;
10467;SDS011;5281;48.878;9.394;2024-03-02T10:31:46;2.90;;;2.60;;
10467;SDS011;5281;48.878;9.394;2024-03-02T10:34:13;4.87;;;2.90;;
10467;SDS011;5281;48.878;9.394;2024-03-02T10:36:41;2.63;;;2.43;;
10467;SDS011;5281;48.878;9.394;2024-03-02T10:39:09;3.97;;;3.10;;
10467;SDS011;5281;48.878;9.394;2024-03-02T10:41:36;5.60;;;3.07;;
10467;SDS011;5281;48.878;9.394;2024-03-02T10:44:05;2.73;;;2.50;;
10467;SDS011;5281;48.878;9.394;2024-03-02T10:46:33;2.83;;;2.30;;
10467;SDS011;5281;48.878;9.394;2024-03-02T10:49:02;3.33;;;2.47;;
10467;SDS011;5281;48.878;9.394;2024-03-02T10:51:30;2.43;;;2.23;;
10467;SDS011;5281;48.878;9.394;2024-03-02T10:53:58;2.77;;;2.17;;
10467;SDS011;5281;48.878;9.394;2024-03-02T10:56:27;2.43;;;2.13;;
10467;SDS011;5281;48.878;9.394;2024-03-02T10:58:59;4.97;;;2.60;;
10467;SDS011;5281;48.878;9.394;2024-03-02T11:01:29;3.20;;;2.30;;
10467;SDS011;5281;48.878;9.394;2024-03-02T11:03:57;2.90;;;2.43;;
10467;SDS011;5281;48.878;9.394;2024-03-02T11:06:27;2.00;;;1.73;;
10467;SDS011;5281;48.878;9.394;2024-03-02T11:08:58;5.20;;;2.27;;
10467;SDS011;5281;48.878;9.394;2024-03-02T11:11:33;3.80;;;2.03;;
10467;SDS011;5281;48.878;9.394;2024-03-02T11:14:07;2.38;;;2.10;;
10467;SDS011;5281;48.878;9.394;2024-03-02T11:16:37;2.30;;;2.10;;
10467;SDS011;5281;48.878;9.394;2024-03-02T11:19:07;2.27;;;2.00;;
10467;SDS011;5281;48.878;9.394;2024-03-02T11:21:37;3.45;;;1.92;;
10467;SDS011;5281;48.878;9.394;2024-03-02T11:26:58;2.78;;;1.92;;
10467;SDS011;5281;48.878;9.394;2024-03-02T11:29:44;1.85;;;1.67;;
10467;SDS011;5281;48.878;9.394;2024-03-02T11:32:16;6.22;;;1.63;;
10467;SDS011;5281;48.878;9.394;2024-03-02T11:34:45;2.00;;;1.80;;
10467;SDS011;5281;48.878;9.394;2024-03-02T11:37:14;1.60;;;1.42;;
10467;SDS011;5281;48.878;9.394;2024-03-02T11:39:42;2.17;;;1.80;;
10467;SDS011;5281;48.878;9.394;2024-03-02T11:42:09;2.00;;;1.53;;
10467;SDS011;5281;48.878;9.394;2024-03-02T11:44:39;2.20;;;1.60;;
10467;SDS011;5281;48.878;9.394;2024-03-02T11:47:07;1.77;;;1.58;;
10467;SDS011;5281;48.878;9.394;2024-03-02T11:49:36;1.77;;;1.45;;
10467;SDS011;5281;48.878;9.394;2024-03-02T11:52:05;2.97;;;1.50;;
10467;SDS011;5281;48.878;9.394;2024-03-02T11:54:34;3.83;;;1.70;;
10467;SDS011;5281;48.878;9.394;2024-03-02T11:57:04;2.58;;;1.40;;
10467;SDS011;5281;48.878;9.394;2024-03-02T11:59:32;2.25;;;1.42;;
10467;SDS011;5281;48.878;9.394;2024-03-02T12:01:59;2.83;;;1.10;;
10467;SDS011;5281;48.878;9.394;2024-03-02T12:04:26;2.53;;;1.30;;
10467;SDS011;5281;48.878;9.394;2024-03-02T12:06:56;1.15;;;1.00;;
10467;SDS011;5281;48.878;9.394;2024-03-02T12:09:25;2.25;;;1.20;;
10467;SDS011;5281;48.878;9.394;2024-03-02T12:12:03;1.85;;;1.20;;
10467;SDS011;5281;48.878;9.394;2024-03-02T12:14:31;1.50;;;1.30;;
10467;SDS011;5281;48.878;9.394;2024-03-02T12:16:58;1.60;;;1.10;;
10467;SDS011;5281;48.878;9.394;2024-03-02T12:19:25;1.77;;;1.10;;
10467;SDS011;5281;48.878;9.394;2024-03-02T12:21:52;1.20;;;1.08;;
10467;SDS011;5281;48.878;9.394;2024-03-02T12:24:20;2.80;;;1.20;;
10467;SDS011;5281;48.878;9.394;2024-03-02T12:26:47;1.88;;;1.10;;
10467;SDS011;5281;48.878;9.394;2024-03-02T12:29:15;2.75;;;0.93;;
10467;SDS011;5281;48.878;9.394;2024-03-02T12:31:42;1.48;;;1.23;;
10467;SDS011;5281;48.878;9.394;2024-03-02T12:34:10;1.80;;;1.30;;
10467;SDS011;5281;48.878;9.394;2024-03-02T12:36:39;1.55;;;1.45;;
10467;SDS011;5281;48.878;9.394;2024-03-02T12:39:06;2.80;;;2.10;;
10467;SDS011;5281;48.878;9.394;2024-03-02T12:41:35;2.53;;;1.75;;
10467;SDS011;5281;48.878;9.394;2024-03-02T12:44:02;1.85;;;1.35;;
10467;SDS011;5281;48.878;9.394;2024-03-02T12:46:30;1.60;;;1.50;;
10467;SDS011;5281;48.878;9.394;2024-03-02T12:48:57;2.00;;;1.23;;
10467;SDS011;5281;48.878;9.394;2024-03-02T12:51:24;1.50;;;1.20;;
10467;SDS011;5281;48.878;9.394;2024-03-02T12:53:53;1.40;;;1.20;;
10467;SDS011;5281;48.878;9.394;2024-03-02T12:56:20;2.60;;;1.20;;
10467;SDS011;5281;48.878;9.394;2024-03-02T12:58:47;1.30;;;1.10;;
10467;SDS011;5281;48.878;9.394;2024-03-02T13:01:14;3.63;;;1.33;;
10467;SDS011;5281;48.878;9.394;2024-03-02T13:03:45;4.25;;;1.40;;
10467;SDS011;5281;48.878;9.394;2024-03-02T13:06:14;1.58;;;0.90;;
10467;SDS011;5281;48.878;9.394;2024-03-02T13:08:42;1.33;;;1.05;;
10467;SDS011;5281;48.878;9.394;2024-03-02T13:11:09;1.17;;;1.02;;
10467;SDS011;5281;48.878;9.394;2024-03-02T13:13:36;2.00;;;1.20;;
10467;SDS011;5281;48.878;9.394;2024-03-02T13:16:03;1.40;;;1.27;;
10467;SDS011;5281;48.878;9.394;2024-03-02T13:18:31;3.38;;;1.30;;
10467;SDS011;5281;48.878;9.394;2024-03-02T13:21:00;2.17;;;0.98;;
10467;SDS011;5281;48.878;9.394;2024-03-02T13:23:27;0.88;;;0.80;;
10467;SDS011;5281;48.878;9.394;2024-03-02T13:25:55;1.23;;;0.73;;
10467;SDS011;5281;48.878;9.394;2024-03-02T13:28:23;3.10;;;0.88;;
10467;SDS011;5281;48.878;9.394;2024-03-02T13:30:50;1.30;;;1.20;;
10467;SDS011;5281;48.878;9.394;2024-03-02T13:33:16;1.90;;;1.20;;
10467;SDS011;5281;48.878;9.394;2024-03-02T13:35:47;2.40;;;1.50;;
10467;SDS011;5281;48.878;9.394;2024-03-02T13:38:16;2.17;;;1.52;;
10467;SDS011;5281;48.878;9.394;2024-03-02T13:40:42;2.58;;;1.30;;
10467;SDS011;5281;48.878;9.394;2024-03-02T13:43:09;1.10;;;0.80;;
10467;SDS011;5281;48.878;9.394;2024-03-02T13:45:36;1.45;;;0.90;;
10467;SDS011;5281;48.878;9.394;2024-03-02T13:48:03;2.40;;;0.90;;
10467;SDS011;5281;48.878;9.394;2024-03-02T13:50:30;2.10;;;0.90;;
10467;SDS011;5281;48.878;9.394;2024-03-02T13:52:58;0.60;;;0.50;;
10467;SDS011;5281;48.878;9.394;2024-03-02T13:55:26;2.15;;;0.55;;
10467;SDS011;5281;48.878;9.394;2024-03-02T13:57:52;0.75;;;0.40;;
10467;SDS011;5281;48.878;9.394;2024-03-02T14:00:19;2.03;;;0.60;;
10467;SDS011;5281;48.878;9.394;2024-03-02T14:02:46;1.23;;;0.65;;
10467;SDS011;5281;48.878;9.394;2024-03-02T14:05:14;0.93;;;0.50;;
10467;SDS011;5281;48.878;9.394;2024-03-02T14:07:41;1.85;;;0.85;;
10467;SDS011;5281;48.878;9.394;2024-03-02T14:10:08;2.72;;;1.00;;
10467;SDS011;5281;48.878;9.394;2024-03-02T14:12:37;0.88;;;0.80;;
10467;SDS011;5281;48.878;9.394;2024-03-02T14:15:04;1.73;;;1.40;;
10467;SDS011;5281;48.878;9.394;2024-03-02T14:17:32;1.00;;;0.70;;
10467;SDS011;5281;48.878;9.394;2024-03-02T14:19:59;1.35;;;1.20;;
10467;SDS011;5281;48.878;9.394;2024-03-02T14:22:26;2.00;;;0.85;;
10467;SDS011;5281;48.878;9.394;2024-03-02T14:24:53;3.15;;;0.93;;
10467;SDS011;5281;48.878;9.394;2024-03-02T14:27:19;2.30;;;1.05;;
10467;SDS011;5281;48.878;9.394;2024-03-02T14:29:48;2.15;;;0.95;;
10467;SDS011;5281;48.878;9.394;2024-03-02T14:32:14;2.08;;;0.93;;
10467;SDS011;5281;48.878;9.394;2024-03-02T14:34:41;1.02;;;0.65;;
10467;SDS011;5281;48.878;9.394;2024-03-02T14:37:09;0.95;;;0.70;;
10467;SDS011;5281;48.878;9.394;2024-03-02T14:39:35;1.80;;;0.88;;
10467;SDS011;5281;48.878;9.394;2024-03-02T14:42:02;1.23;;;0.90;;
10467;SDS011;5281;48.878;9.394;2024-03-02T14:44:29;1.75;;;0.90;;
10467;SDS011;5281;48.878;9.394;2024-03-02T14:46:57;2.55;;;1.00;;
10467;SDS011;5281;48.878;9.394;2024-03-02T14:49:24;1.35;;;0.90;;
10467;SDS011;5281;48.878;9.394;2024-03-02T14:51:51;1.95;;;1.30;;
10467;SDS011;5281;48.878;9.394;2024-03-02T14:54:18;5.03;;;2.10;;
10467;SDS011;5281;48.878;9.394;2024-03-02T14:56:45;4.13;;;1.70;;